createdAt,value
2023-04-11T00:01:24.042Z,100.00
2023-04-11T00:03:51.193Z,100.00
2023-04-11T00:06:18.044Z,100.00
2023-04-11T00:08:44.888Z,98.86
2023-04-11T00:11:11.698Z,97.94
2023-04-11T00:13:38.571Z,97.68
2023-04-11T00:16:05.845Z,99.21
2023-04-11T00:18:32.768Z,99.43
2023-04-11T00:20:59.553Z,99.35
2023-04-11T00:23:26.380Z,99.71
2023-04-11T00:25:53.221Z,98.87
2023-04-11T00:28:20.053Z,99.08
2023-04-11T00:30:46.934Z,97.83
2023-04-11T00:33:13.854Z,97.26
2023-04-11T00:35:41.148Z,97.50
2023-04-11T00:38:08.019Z,98.60
2023-04-11T00:40:34.930Z,99.16
2023-04-11T00:43:01.762Z,99.55
2023-04-11T00:45:28.790Z,100.00
2023-04-11T00:47:55.938Z,99.97
2023-04-11T00:50:22.942Z,100.00
2023-04-11T00:52:51.676Z,100.00
2023-04-11T00:55:18.583Z,100.00
2023-04-11T00:57:45.460Z,100.00
2023-04-11T01:00:13.204Z,99.27
2023-04-11T01:02:41.198Z,98.99
2023-04-11T01:05:11.525Z,98.07
2023-04-11T01:07:40.766Z,97.58
2023-04-11T01:10:09.251Z,97.03
2023-04-11T01:12:38.251Z,97.59
2023-04-11T01:15:06.423Z,98.83
2023-04-11T01:17:33.392Z,98.62
2023-04-11T01:20:00.887Z,98.69
2023-04-11T01:22:28.830Z,98.40
2023-04-11T01:24:55.728Z,98.19
2023-04-11T01:27:22.619Z,97.41
2023-04-11T01:29:49.434Z,95.98
2023-04-11T01:32:16.712Z,96.00
2023-04-11T01:34:46.071Z,95.89
2023-04-11T01:37:13.145Z,96.29
2023-04-11T01:39:40.104Z,95.95
2023-04-11T01:42:07.183Z,95.41
2023-04-11T01:44:35.409Z,94.46
2023-04-11T01:47:02.354Z,94.10
2023-04-11T01:49:29.198Z,94.13
2023-04-11T01:51:56.170Z,94.38
2023-04-11T01:54:23.108Z,93.77
2023-04-11T01:56:50.346Z,93.31
2023-04-11T01:59:17.292Z,93.64
2023-04-11T02:01:44.241Z,92.66
2023-04-11T02:04:11.479Z,92.31
2023-04-11T02:06:38.583Z,92.12
2023-04-11T02:09:05.464Z,91.56
2023-04-11T02:11:32.420Z,91.62
2023-04-11T02:13:59.604Z,91.45
2023-04-11T02:16:26.542Z,91.07
2023-04-11T02:18:53.624Z,90.29
2023-04-11T02:21:20.664Z,89.91
2023-04-11T02:23:47.573Z,89.08
2023-04-11T02:26:14.621Z,89.00
2023-04-11T02:28:41.567Z,90.56
2023-04-11T02:31:08.783Z,91.70
2023-04-11T02:33:35.747Z,91.99
2023-04-11T02:36:02.654Z,91.46
2023-04-11T02:38:29.887Z,91.65
2023-04-11T02:40:56.829Z,92.29
2023-04-11T02:43:23.925Z,92.41
2023-04-11T02:45:54.186Z,91.84
2023-04-11T02:48:23.444Z,91.44
2023-04-11T02:50:50.321Z,90.74
2023-04-11T02:53:17.237Z,90.21
2023-04-11T02:55:44.214Z,90.15
2023-04-11T02:58:10.969Z,89.50
2023-04-11T03:00:37.908Z,88.96
2023-04-11T03:03:05.181Z,88.24
2023-04-11T03:05:32.182Z,87.69
2023-04-11T03:07:59.013Z,87.38
2023-04-11T03:10:25.913Z,87.24
2023-04-11T03:12:52.774Z,87.27
2023-04-11T03:15:19.682Z,88.14
2023-04-11T03:17:46.721Z,88.57
2023-04-11T03:20:13.618Z,88.54
2023-04-11T03:22:40.467Z,89.12
2023-04-11T03:25:07.844Z,92.40
2023-04-11T03:27:34.704Z,93.14
2023-04-11T03:30:01.544Z,95.73
2023-04-11T03:32:28.502Z,96.96
2023-04-11T03:34:55.452Z,96.57
2023-04-11T03:37:22.311Z,96.10
2023-04-11T03:39:49.368Z,96.20
2023-04-11T03:42:16.173Z,94.74
2023-04-11T03:44:43.050Z,95.16
2023-04-11T03:47:10.052Z,94.78
2023-04-11T03:49:36.890Z,94.43
2023-04-11T03:52:04.262Z,93.94
2023-04-11T03:54:31.217Z,91.70
2023-04-11T03:56:58.064Z,91.92
2023-04-11T03:59:24.929Z,90.96
2023-04-11T04:01:51.990Z,90.14
2023-04-11T04:04:19.063Z,88.54
2023-04-11T04:06:45.997Z,88.81
2023-04-11T04:09:13.004Z,88.51
2023-04-11T04:11:39.799Z,87.85
2023-04-11T04:14:06.664Z,87.33
2023-04-11T04:16:33.599Z,87.60
2023-04-11T04:19:00.398Z,87.73
2023-04-11T04:21:27.211Z,87.55
2023-04-11T04:23:54.564Z,86.80
2023-04-11T04:26:21.595Z,86.74
2023-04-11T04:28:48.511Z,86.54
2023-04-11T04:31:15.612Z,86.65
2023-04-11T04:33:43.108Z,86.09
2023-04-11T04:36:10.783Z,85.89
2023-04-11T04:38:37.687Z,86.12
2023-04-11T04:41:05.185Z,88.25
2023-04-11T04:43:32.950Z,89.53
2023-04-11T04:45:59.760Z,90.85
2023-04-11T04:48:26.622Z,92.30
2023-04-11T04:50:53.509Z,91.95
2023-04-11T04:53:20.402Z,92.23
2023-04-11T04:55:47.146Z,91.59
2023-04-11T04:58:13.946Z,91.22
2023-04-11T05:00:40.804Z,91.05
2023-04-11T05:03:07.824Z,90.95
2023-04-11T05:05:34.871Z,89.44
2023-04-11T05:08:01.880Z,89.83
2023-04-11T05:10:28.750Z,89.83
2023-04-11T05:12:55.577Z,89.99
2023-04-11T05:15:23.889Z,89.87
2023-04-11T05:17:50.747Z,87.63
2023-04-11T05:20:17.590Z,87.16
2023-04-11T05:22:44.492Z,88.13
2023-04-11T05:25:11.264Z,86.50
2023-04-11T05:27:38.130Z,84.81
2023-04-11T05:30:06.075Z,84.15
2023-04-11T05:32:33.060Z,84.96
2023-04-11T05:34:59.958Z,84.74
2023-04-11T05:37:27.009Z,83.33
2023-04-11T05:39:53.909Z,83.72
2023-04-11T05:42:20.805Z,83.63
2023-04-11T05:44:47.743Z,84.89
2023-04-11T05:47:14.596Z,84.69
2023-04-11T05:49:41.393Z,86.61
2023-04-11T05:52:08.597Z,86.11
2023-04-11T05:54:37.109Z,85.00
2023-04-11T05:57:03.920Z,85.24
2023-04-11T05:59:31.703Z,85.91
2023-04-11T06:01:59.366Z,85.20
2023-04-11T06:04:26.531Z,85.00
2023-04-11T06:06:54.250Z,82.99
2023-04-11T06:09:21.093Z,84.34
2023-04-11T06:11:47.913Z,83.75
2023-04-11T06:14:14.907Z,80.75
2023-04-11T06:16:41.790Z,82.19
2023-04-11T06:19:08.624Z,80.90
2023-04-11T06:21:35.578Z,81.43
2023-04-11T06:24:09.248Z,78.94
2023-04-11T06:26:36.252Z,77.84
2023-04-11T06:29:07.355Z,79.60
2023-04-11T06:31:34.518Z,80.85
2023-04-11T06:34:02.150Z,80.88
2023-04-11T06:36:30.325Z,80.56
2023-04-11T06:38:57.161Z,80.25
2023-04-11T06:41:24.251Z,80.28
2023-04-11T06:43:51.097Z,80.96
2023-04-11T06:46:17.927Z,78.89
2023-04-11T06:48:44.802Z,79.43
2023-04-11T06:51:11.651Z,78.79
2023-04-11T06:53:38.532Z,79.74
2023-04-11T06:56:05.858Z,75.42
2023-04-11T06:58:32.717Z,71.63
2023-04-11T07:00:59.603Z,75.50
2023-04-11T07:03:26.612Z,74.61
2023-04-11T07:05:53.482Z,73.77
2023-04-11T07:08:20.288Z,75.53
2023-04-11T07:10:47.230Z,75.21
2023-04-11T07:13:14.119Z,76.82
2023-04-11T07:15:40.924Z,77.13
2023-04-11T07:18:07.795Z,77.35
2023-04-11T07:20:34.677Z,75.81
2023-04-11T07:23:01.484Z,78.12
2023-04-11T07:25:28.952Z,76.11
2023-04-11T07:27:55.831Z,74.80
2023-04-11T07:30:23.248Z,74.37
2023-04-11T07:32:50.136Z,76.16
2023-04-11T07:35:17.133Z,76.06
2023-04-11T07:37:44.035Z,67.03
2023-04-11T07:40:11.518Z,65.22
2023-04-11T07:42:38.375Z,63.68
2023-04-11T07:45:05.997Z,64.92
2023-04-11T07:47:33.010Z,63.42
2023-04-11T07:49:59.885Z,63.08
2023-04-11T07:52:26.741Z,64.28
2023-04-11T07:54:54.408Z,62.79
2023-04-11T07:57:21.272Z,63.44
2023-04-11T07:59:48.074Z,64.96
2023-04-11T08:02:15.026Z,62.58
2023-04-11T08:04:42.369Z,61.22
2023-04-11T08:07:09.234Z,60.50
2023-04-11T08:09:36.082Z,62.65
2023-04-11T08:12:02.966Z,63.39
2023-04-11T08:14:29.799Z,61.74
2023-04-11T08:16:56.831Z,60.14
2023-04-11T08:19:23.705Z,63.54
2023-04-11T08:21:50.564Z,65.62
2023-04-11T08:24:17.376Z,65.55
2023-04-11T08:26:44.333Z,64.51
2023-04-11T08:29:11.397Z,64.04
2023-04-11T08:31:43.361Z,63.14
2023-04-11T08:34:11.017Z,61.44
2023-04-11T08:36:37.855Z,61.17
2023-04-11T08:39:04.797Z,61.54
2023-04-11T08:41:33.644Z,61.75
2023-04-11T08:44:00.966Z,60.89
2023-04-11T08:46:30.619Z,62.72
2023-04-11T08:48:57.663Z,59.46
2023-04-11T08:51:26.153Z,63.28
2023-04-11T08:53:54.591Z,63.61
2023-04-11T08:56:21.419Z,63.21
2023-04-11T08:58:48.404Z,60.41
2023-04-11T09:01:25.197Z,59.74
2023-04-11T09:03:52.128Z,59.74
2023-04-11T09:06:19.113Z,61.92
2023-04-11T09:08:46.074Z,60.88
2023-04-11T09:11:12.861Z,61.32
2023-04-11T09:13:39.636Z,60.00
2023-04-11T09:16:11.696Z,60.33
2023-04-11T09:18:43.966Z,59.17
2023-04-11T09:21:13.265Z,58.60
2023-04-11T09:23:40.745Z,60.02
2023-04-11T09:26:09.223Z,58.45
2023-04-11T09:28:46.797Z,57.83
2023-04-11T09:31:13.937Z,55.28
2023-04-11T09:33:56.084Z,55.92
2023-04-11T09:36:25.246Z,53.55
2023-04-11T09:38:52.225Z,55.13
2023-04-11T09:41:33.388Z,52.26
2023-04-11T09:44:00.808Z,56.81
2023-04-11T09:46:28.214Z,54.44
2023-04-11T09:48:55.542Z,51.94
2023-04-11T09:53:52.896Z,57.18
2023-04-11T09:56:20.635Z,56.08
2023-04-11T09:58:47.913Z,53.73
2023-04-11T10:01:14.814Z,56.35
2023-04-11T10:03:41.718Z,57.26
2023-04-11T10:06:21.586Z,55.91
2023-04-11T10:08:50.659Z,56.33
2023-04-11T10:11:18.296Z,57.23
2023-04-11T10:13:46.600Z,51.11
2023-04-11T10:16:16.214Z,52.38
2023-04-11T10:18:55.131Z,55.59
2023-04-11T10:21:27.840Z,55.29
2023-04-11T10:24:09.936Z,53.18
2023-04-11T10:26:56.925Z,53.98
2023-04-11T10:29:29.912Z,54.11
2023-04-11T10:32:17.011Z,52.19
2023-04-11T10:34:52.692Z,51.97
2023-04-11T10:37:40.311Z,48.76
2023-04-11T10:40:08.201Z,47.78
2023-04-11T10:42:43.044Z,49.34
2023-04-11T10:45:26.144Z,48.25
2023-04-11T10:47:59.069Z,49.94
2023-04-11T10:50:25.967Z,48.59
2023-04-11T10:52:58.041Z,50.33
2023-04-11T10:55:26.904Z,51.53
2023-04-11T10:58:17.509Z,52.08
2023-04-11T11:00:47.334Z,53.34
2023-04-11T11:03:28.491Z,51.61
2023-04-11T11:06:03.528Z,52.79
2023-04-11T11:08:38.354Z,50.43
2023-04-11T11:11:06.745Z,50.13
2023-04-11T11:13:43.324Z,49.12
2023-04-11T11:16:14.696Z,47.22
2023-04-11T11:18:45.631Z,51.04
2023-04-11T11:21:17.035Z,52.41
2023-04-11T11:24:01.109Z,49.96
2023-04-11T11:26:42.178Z,49.46
2023-04-11T11:29:10.373Z,47.28
2023-04-11T11:31:45.202Z,45.78
2023-04-11T11:34:23.422Z,48.25
2023-04-11T11:36:51.560Z,49.80
2023-04-11T11:39:20.430Z,47.76
2023-04-11T11:41:48.941Z,46.18
2023-04-11T11:44:22.717Z,52.13
2023-04-11T11:47:06.731Z,48.12
2023-04-11T11:49:53.584Z,47.25
2023-04-11T11:52:35.508Z,45.00
2023-04-11T11:55:03.895Z,47.44
2023-04-11T11:57:30.826Z,45.84
2023-04-11T12:00:00.706Z,45.51
2023-04-11T12:02:28.423Z,46.16
2023-04-11T12:05:04.876Z,46.16
2023-04-11T12:07:32.867Z,50.45
2023-04-11T12:10:07.470Z,50.94
2023-04-11T12:12:42.503Z,51.13
2023-04-11T12:15:29.292Z,47.68
2023-04-11T12:17:56.266Z,48.08
2023-04-11T12:20:31.198Z,49.08
2023-04-11T12:22:58.156Z,46.83
2023-04-11T12:25:25.089Z,45.76
2023-04-11T12:27:52.024Z,44.28
2023-04-11T12:30:18.981Z,43.03
2023-04-11T12:32:45.879Z,44.80
2023-04-11T12:35:13.171Z,45.89
2023-04-11T12:37:40.532Z,43.23
2023-04-11T12:40:08.223Z,44.79
2023-04-11T12:44:22.884Z,44.55
2023-04-11T12:45:22.163Z,42.30
2023-04-11T12:47:49.005Z,43.34
2023-04-11T12:50:15.849Z,42.23
2023-04-11T12:52:43.006Z,45.20
2023-04-11T12:55:10.200Z,43.76
2023-04-11T12:57:37.169Z,43.82
2023-04-11T13:00:04.417Z,45.79
2023-04-11T13:02:38.267Z,46.96
2023-04-11T13:05:09.917Z,50.45
2023-04-11T13:07:36.841Z,49.83
2023-04-11T13:10:07.568Z,46.95
2023-04-11T13:12:34.554Z,48.65
2023-04-11T13:15:01.399Z,48.17
2023-04-11T13:17:30.983Z,49.24
2023-04-11T13:19:57.921Z,48.51
2023-04-11T13:22:24.728Z,48.19
2023-04-11T13:24:51.617Z,49.44
2023-04-11T13:27:18.438Z,50.11
2023-04-11T13:29:45.229Z,51.36
2023-04-11T13:32:12.085Z,51.75
2023-04-11T13:34:39.097Z,50.49
2023-04-11T13:37:05.913Z,49.17
2023-04-11T13:39:32.762Z,46.56
2023-04-11T13:41:59.789Z,45.27
2023-04-11T13:44:29.196Z,46.46
2023-04-11T13:46:55.985Z,49.81
2023-04-11T13:49:22.950Z,49.84
2023-04-11T13:51:49.792Z,46.18
2023-04-11T13:54:16.638Z,47.02
2023-04-11T13:56:43.681Z,47.48
2023-04-11T13:59:10.525Z,47.58
2023-04-11T14:01:37.692Z,46.33
2023-04-11T14:04:04.934Z,44.79
2023-04-11T14:06:31.800Z,44.79
2023-04-11T14:08:58.681Z,41.05
2023-04-11T14:11:25.554Z,41.99
2023-04-11T14:13:52.331Z,43.03
2023-04-11T14:16:19.314Z,43.74
2023-04-11T14:18:46.251Z,43.61
2023-04-11T14:21:13.114Z,43.60
2023-04-11T14:23:39.955Z,42.71
2023-04-11T14:26:07.121Z,44.77
2023-04-11T14:28:34.017Z,45.11
2023-04-11T14:31:01.021Z,46.23
2023-04-11T14:33:27.958Z,46.00
2023-04-11T14:35:54.849Z,46.64
2023-04-11T14:38:21.720Z,46.71
2023-04-11T14:40:48.712Z,46.30
2023-04-11T14:43:15.558Z,46.72
2023-04-11T14:45:42.540Z,46.80
2023-04-11T14:48:09.598Z,46.37
2023-04-11T14:50:36.410Z,45.34
2023-04-11T14:53:03.203Z,46.06
2023-04-11T14:55:30.108Z,45.78
2023-04-11T14:57:56.950Z,45.93
2023-04-11T15:00:24.286Z,45.55
2023-04-11T15:02:53.508Z,45.68
2023-04-11T15:05:23.002Z,45.58
2023-04-11T15:07:51.289Z,44.45
2023-04-11T15:10:22.974Z,45.74
2023-04-11T15:12:50.241Z,45.18
2023-04-11T15:15:17.261Z,46.30
2023-04-11T15:17:48.539Z,45.99
2023-04-11T15:20:16.328Z,47.06
2023-04-11T15:22:45.717Z,47.18
2023-04-11T15:25:15.058Z,48.67
2023-04-11T15:27:42.285Z,49.21
2023-04-11T15:30:09.612Z,49.82
2023-04-11T15:32:36.606Z,49.30
2023-04-11T15:35:03.492Z,50.38
2023-04-11T15:37:30.305Z,50.53
2023-04-11T15:39:57.194Z,50.30
2023-04-11T15:42:24.077Z,50.13
2023-04-11T15:44:50.924Z,50.07
2023-04-11T15:47:18.134Z,49.94
2023-04-11T15:49:45.037Z,50.61
2023-04-11T15:52:11.895Z,50.53
2023-04-11T15:54:38.897Z,50.72
2023-04-11T15:57:05.844Z,51.11
2023-04-11T15:59:33.785Z,51.39
2023-04-11T16:02:00.804Z,51.36
2023-04-11T16:04:27.759Z,50.93
2023-04-11T16:06:54.604Z,50.94
2023-04-11T16:09:21.660Z,52.06
2023-04-11T16:11:48.493Z,51.95
2023-04-11T16:14:15.371Z,52.81
2023-04-11T16:16:45.378Z,53.95
2023-04-11T16:19:12.168Z,54.28
2023-04-11T16:21:39.035Z,56.54
2023-04-11T16:24:05.981Z,56.68
2023-04-11T16:26:32.898Z,57.85
2023-04-11T16:29:02.295Z,57.65
2023-04-11T16:31:29.555Z,58.19
2023-04-11T16:33:56.551Z,59.33
2023-04-11T16:36:23.897Z,60.17
2023-04-11T16:38:50.849Z,59.62
2023-04-11T16:41:17.869Z,59.99
2023-04-11T16:43:44.931Z,59.50
2023-04-11T16:46:13.630Z,59.18
2023-04-11T16:48:44.142Z,59.67
2023-04-11T16:51:11.452Z,59.83
2023-04-11T16:53:39.441Z,63.39
2023-04-11T16:56:06.534Z,66.53
2023-04-11T16:58:33.548Z,70.05
2023-04-11T17:01:01.117Z,71.33
2023-04-11T17:03:28.313Z,72.20
2023-04-11T17:05:55.361Z,74.14
2023-04-11T17:08:22.281Z,73.68
2023-04-11T17:10:49.170Z,74.37
2023-04-11T17:13:16.106Z,75.40
2023-04-11T17:15:43.180Z,76.06
2023-04-11T17:18:09.982Z,77.15
2023-04-11T17:20:36.837Z,76.43
2023-04-11T17:23:03.704Z,77.05
2023-04-11T17:25:30.522Z,77.07
2023-04-11T17:27:57.841Z,75.90
2023-04-11T17:30:24.811Z,75.72
2023-04-11T17:32:51.661Z,76.27
2023-04-11T17:35:18.692Z,76.70
2023-04-11T17:37:45.570Z,78.26
2023-04-11T17:40:12.857Z,77.17
2023-04-11T17:42:40.035Z,76.63
2023-04-11T17:45:16.528Z,76.26
2023-04-11T17:47:44.405Z,76.74
2023-04-11T17:50:16.545Z,79.22
2023-04-11T17:52:49.849Z,81.79
2023-04-11T17:55:29.665Z,83.04
2023-04-11T17:57:56.576Z,83.75
2023-04-11T18:00:23.845Z,83.61
2023-04-11T18:02:53.488Z,82.41
2023-04-11T18:05:25.361Z,82.13
2023-04-11T18:07:54.550Z,82.07
2023-04-11T18:10:21.736Z,80.66
2023-04-11T18:12:50.874Z,79.93
2023-04-11T18:15:18.288Z,78.06
2023-04-11T18:17:45.469Z,76.81
2023-04-11T18:20:13.739Z,75.96
2023-04-11T18:29:00.908Z,74.01
2023-04-11T18:31:27.897Z,73.57
2023-04-11T18:33:55.279Z,74.38
2023-04-11T18:39:54.237Z,73.96
2023-04-11T18:48:48.389Z,72.80
2023-04-11T18:51:15.381Z,71.82
2023-04-11T18:53:42.332Z,71.76
2023-04-11T18:56:10.411Z,71.99
2023-04-11T18:58:39.566Z,70.95
2023-04-11T19:01:14.792Z,70.54
2023-04-11T19:03:43.483Z,70.50
2023-04-11T19:06:13.554Z,69.40
2023-04-11T19:08:40.513Z,69.66
2023-04-11T19:11:10.561Z,70.06
2023-04-11T19:13:37.511Z,68.96
2023-04-11T19:16:05.112Z,69.59
2023-04-11T19:18:32.291Z,70.01
2023-04-11T19:20:59.256Z,69.84
2023-04-11T19:23:27.366Z,70.50
2023-04-11T19:25:54.436Z,71.29
2023-04-11T19:28:21.451Z,71.70
2023-04-11T19:30:48.949Z,71.76
2023-04-11T19:33:15.919Z,72.27
2023-04-11T19:35:42.881Z,74.20
2023-04-11T19:38:09.926Z,75.68
2023-04-11T19:40:36.901Z,75.84
2023-04-11T19:43:04.060Z,77.07
2023-04-11T19:45:32.255Z,76.17
2023-04-11T19:47:59.651Z,76.24
2023-04-11T19:50:26.520Z,75.78
2023-04-11T19:52:55.303Z,75.34
2023-04-11T19:55:22.599Z,75.17
2023-04-11T19:57:49.426Z,74.19
2023-04-11T20:00:16.686Z,73.12
2023-04-11T20:02:46.256Z,73.55
2023-04-11T20:05:20.232Z,73.18
2023-04-11T20:07:47.205Z,71.95
2023-04-11T20:10:15.508Z,71.59
2023-04-11T20:12:42.384Z,71.43
2023-04-11T20:15:09.737Z,70.87
2023-04-11T20:17:36.688Z,70.45
2023-04-11T20:20:03.680Z,70.31
2023-04-11T20:22:31.402Z,69.32
2023-04-11T20:24:58.457Z,69.27
2023-04-11T20:27:25.313Z,69.25
2023-04-11T20:29:52.300Z,68.95
2023-04-11T20:32:19.157Z,68.07
2023-04-11T20:34:46.055Z,68.50
2023-04-11T20:37:13.090Z,68.33
2023-04-11T20:39:39.927Z,67.10
2023-04-11T20:42:09.830Z,67.79
2023-04-11T20:44:36.881Z,68.16
2023-04-11T20:47:03.699Z,68.33
2023-04-11T20:49:30.518Z,68.39
2023-04-11T20:51:57.432Z,68.52
2023-04-11T20:54:24.346Z,68.33
2023-04-11T20:56:51.247Z,68.96
2023-04-11T20:59:18.236Z,68.10
2023-04-11T21:01:45.172Z,68.23
2023-04-11T21:04:12.044Z,68.53
2023-04-11T21:06:39.069Z,67.74
2023-04-11T21:09:05.954Z,68.00
2023-04-11T21:11:33.204Z,68.03
2023-04-11T21:14:00.155Z,68.24
2023-04-11T21:16:27.117Z,68.59
2023-04-11T21:18:54.042Z,69.03
2023-04-11T21:21:22.696Z,71.10
2023-04-11T21:23:49.516Z,72.85
2023-04-11T21:26:16.438Z,73.90
2023-04-11T21:28:43.942Z,75.30
2023-04-11T21:31:10.789Z,74.28
2023-04-11T21:33:37.591Z,72.96
2023-04-11T21:36:04.848Z,71.74
2023-04-11T21:38:31.631Z,71.45
2023-04-11T21:40:58.479Z,71.24
2023-04-11T21:43:25.465Z,71.30
2023-04-11T21:45:52.324Z,70.82
2023-04-11T21:48:19.185Z,70.43
2023-04-11T21:50:46.140Z,70.21
2023-04-11T21:53:13.286Z,69.66
2023-04-11T21:55:48.877Z,69.60
2023-04-11T21:58:26.218Z,70.63
2023-04-11T22:00:55.831Z,71.63
2023-04-11T22:03:23.020Z,73.64
2023-04-11T22:05:51.128Z,73.43
2023-04-11T22:08:19.759Z,73.10
2023-04-11T22:10:47.727Z,73.69
2023-04-11T22:13:17.259Z,75.44
2023-04-11T22:15:45.881Z,76.63
2023-04-11T22:18:13.258Z,77.17
2023-04-11T22:20:41.629Z,78.17
2023-04-11T22:23:08.529Z,79.18
2023-04-11T22:25:38.594Z,79.57
2023-04-11T22:28:05.580Z,80.74
2023-04-11T22:30:32.553Z,80.75
2023-04-11T22:32:59.845Z,81.77
2023-04-11T22:35:26.732Z,82.37
2023-04-11T22:37:55.020Z,82.33
2023-04-11T22:40:21.976Z,82.66
2023-04-11T22:42:50.358Z,83.01
2023-04-11T22:45:17.578Z,82.67
2023-04-11T22:47:44.448Z,82.38
2023-04-11T22:50:12.495Z,82.45
2023-04-11T22:52:39.559Z,81.46
2023-04-11T22:55:06.882Z,80.96
2023-04-11T22:57:35.155Z,79.33
2023-04-11T23:00:02.316Z,78.68
2023-04-11T23:02:29.560Z,79.06
2023-04-11T23:04:56.497Z,79.41
2023-04-11T23:07:26.182Z,80.28
2023-04-11T23:09:53.051Z,81.08
2023-04-11T23:12:19.937Z,81.79
2023-04-11T23:14:47.051Z,81.95
2023-04-11T23:17:13.932Z,81.68
2023-04-11T23:19:41.020Z,81.50
2023-04-11T23:22:23.709Z,80.83
2023-04-11T23:24:50.576Z,80.98
2023-04-11T23:27:17.352Z,80.66
2023-04-11T23:29:52.114Z,80.17
2023-04-11T23:32:20.716Z,80.09
2023-04-11T23:34:47.521Z,80.45
2023-04-11T23:37:14.478Z,81.35
2023-04-11T23:39:41.752Z,83.20
2023-04-11T23:42:08.579Z,83.66
2023-04-11T23:44:35.464Z,84.34
2023-04-11T23:47:02.309Z,84.71
2023-04-11T23:49:29.232Z,84.70
2023-04-11T23:51:56.157Z,84.48
2023-04-11T23:54:22.998Z,85.42
2023-04-11T23:56:49.853Z,84.28
2023-04-11T23:59:16.784Z,83.55
